• Join FlightAware (Why Join?)
  • Login
  • US Flag 
10:12AM EDT


 

Airport Tracker/Info


-or-


 

Live Flight TrackerFlight Track Log ✈ AWI3551 ✈ 21-Jun-2013 ✈ KBUF - KPHL

Flight Track Log - Related Links

Times and Time Zones

All times are in EDT time to prevent confusion due to time zone crossing. See the AWI3551 flight status page for this flight to view local times or setup timezone preferences in your user account.

Time Position Orientation Groundspeed Altitude Reporting Facility
EDT Latitude Longitude Course Direction KTS MPH feet Rate Location/Type
05:35AM 42.9333 -78.7500 174° South 166 191 1,600  Level Buffalo TRACON
05:36AM 42.9000 -78.7833 216° Southwest 204 235 3,400 1,920 Climbing Buffalo TRACON
05:37AM 42.8236 -78.7886 183° South 272 313 5,600 2,100 Climbing Cleveland Center
05:38AM 42.6114 -78.6823 172° South  Level FlightAware Approximate
05:38AM 42.7461 -78.7708 170° South 278 320 7,900  Level Cleveland Center
05:39AM 42.5162 -78.6638 173° South  Level FlightAware Approximate
05:39AM 42.6622 -78.7453 167° South 278 320 10,300  Level Cleveland Center
05:40AM 42.4206 -78.6500 180° South  Level FlightAware Approximate
05:40AM 42.5764 -78.7194 168° South 286 329 12,300  Level Cleveland Center
05:41AM 42.3246 -78.6440 174° South  Level FlightAware Approximate
05:41AM 42.4819 -78.6772 162° South 324 373 14,400  Level Cleveland Center
05:42AM 42.3875 -78.6378 163° South 349 402 16,300 1,740 Climbing Cleveland Center
05:43AM 42.2889 -78.5903 160° South 372 428 17,900 1,620 Climbing Cleveland Center
05:44AM 42.1858 -78.5458 162° South 383 441 19,600 1,560 Climbing Cleveland Center
05:45AM 42.0808 -78.5017 163° South 388 447 21,100 1,320 Climbing Cleveland Center
05:46AM 41.9758 -78.4547 162° South 388 447 22,300 900 Climbing Cleveland Center
05:47AM 41.8686 -78.4056 161° South 398 458 23,000 300 Climbing Cleveland Center
05:48AM 41.7550 -78.3564 162° South 409 471 23,000  Level Cleveland Center
05:49AM 41.6456 -78.3103 163° South 414 476 23,000  Level Cleveland Center
05:50AM 41.5383 -78.2611 161° South 414 476 23,000  Level Cleveland Center
05:51AM 41.4269 -78.2153 163° South 414 476 23,000  Level Cleveland Center
05:52AM 41.3586 -78.1847 161° South 412 474 23,000  Level New York Center
05:53AM 41.2533 -78.1372 161° South 417 480 23,000  Level New York Center
05:54AM 41.1436 -78.0922 163° South 412 474 23,000  Level New York Center
05:55AM 41.0358 -78.0475 163° South 412 474 23,000 -300 Level New York Center
05:56AM 40.9306 -77.9978 160° South 412 474 22,500 -720 Descending New York Center
05:57AM 40.8511 -77.8961 136° Southeast 392 451 21,700 -840 Descending New York Center
05:58AM 40.7786 -77.7844 131° Southeast 392 451 20,900 -780 Descending New York Center
05:59AM 40.7100 -77.6733 129° Southeast 392 451 20,200 -780 Descending New York Center
06:00AM 40.6569 -77.5475 119° Southeast 392 451 19,400 -840 Descending New York Center
06:01AM 40.6092 -77.4361 119° Southeast 392 451 18,600 -720 Descending New York Center
06:02AM 40.5500 -77.2992 120° Southeast 392 451 18,000 -300 Descending New York Center
06:03AM 40.5039 -77.1883 119° Southeast 392 451 18,000  Level New York Center
06:04AM 40.4483 -77.0578 119° Southeast 387 445 18,000  Level New York Center
06:05AM 40.3983 -76.9386 119° Southeast 381 438 18,000 -240 Level New York Center
06:06AM 40.3611 -76.8128 111° Southeast 381 438 17,600 -840 Descending New York Center
06:07AM 40.3281 -76.6819 108° East 376 433 16,400 -1,200 Descending New York Center
06:08AM 40.2964 -76.5675 110° East 371 427 15,300 -1,260 Descending New York Center
06:09AM 40.2631 -76.4342 108° East 364 419 13,900 -1,320 Descending New York Center
06:10AM 40.2294 -76.3117 110° East 357 411 12,800 -1,260 Descending New York Center
06:11AM 40.1975 -76.1897 109° East 357 411 11,500 -1,200 Descending New York Center
06:12AM 40.1692 -76.0786 108° East 357 411 10,400 -1,080 Descending New York Center
06:13AM 40.1392 -75.9569 108° East 330 380 9,400 -900 Descending New York Center
06:14AM 40.1117 -75.8681 112° Southeast 297 342 8,600 -720 Descending New York Center
06:15AM 40.0831 -75.7575 109° East 297 342 8,000 -360 Descending New York Center
06:16AM 40.0767 -75.6619 95° East 291 335 7,900 -540 Descending New York Center
06:17AM 40.0711 -75.5475 94° East 286 329 7,000 -720 Descending New York Center
06:18AM 40.0664 -75.4550 94° East 286 329 6,500 -540 Descending New York Center
06:19AM 40.0622 -75.3489 93° East 275 316 6,000 -300 Descending New York Center
06:20AM 40.0450 -75.2556 104° East 264 304 6,000  Level New York Center
06:21AM 40.0189 -75.1700 112° Southeast 254 292 6,000 -420 Level New York Center
06:22AM 39.9925 -75.0953 115° Southeast 233 268 5,200 -1,200 Descending New York Center
06:23AM 39.9658 -75.0311 118° Southeast 216 249 3,700 -1,500 Descending New York Center